Tallahassee, FL (32315)

11:16 AM EDT on August 30, 2014 (GMT -0400)
Kate Sullivan WeatherSTEM | Change Station
CLOSE
Current Station
Personal Weather Station
Location: Tallahassee, FL
Elevation: 240 ft
Nearby Weather Stations

Elev 240 ft 30.45 °N, 84.27 °W | Updated 8 minutes ago

Mostly Cloudy
Mostly Cloudy
85.7 °F
Feels Like 97 °F
N
1.0
Wind Variable Wind from ESE
Gusts 4.0 mph

Today
High -- | Low -- °F
--% Chance of Precip.
Yesterday
High -- | Low -- °F
Precip. -- in
7:12 AM 8:02 PM
Waxing Crescent, 22% visible
Pressure 30.13 in
Visibility 10.0 miles
Clouds Scattered Clouds 1700 ft
Mostly Cloudy 25000 ft
Heat Index 97 °F
Dew Point 77 °F
Humidity 76%
Rainfall 0.00 in
Snow Depth Not available.
UV 3.9 out of 12
Pollen 6.80 out of 12
Air Quality Not available.
Flu Activity Not available.
METAR KTLH 301453Z 10004KT 10SM SCT017 BKN250 31/23 A3013 RMK AO2 SLP202 T03110233 53006

More Conditions Fewer Conditions

Pressure 30.13 in
Visibility 10.0 miles
Clouds Scattered Clouds 1700 ft
Mostly Cloudy 25000 ft
Heat Index 97 °F
Dew Point 77 °F
Humidity 76%
Rainfall 0.00 in
Snow Depth Not available.
UV 3.9 out of 12
Pollen 6.80 out of 12
Air Quality Not available.
Flu Activity Not available.
METAR KTLH 301453Z 10004KT 10SM SCT017 BKN250 31/23 A3013 RMK AO2 SLP202 T03110233 53006

More Conditions Fewer Conditions

10-Day Weather Forecast

Almanac

Astronomy

Aug. 30, 2014 Rise Set
Actual Time 7:12 AM EDT 8:02 PM EDT
Civil Twilight 6:48 AM EDT 8:26 PM EDT
Nautical Twilight 6:19 AM EDT 8:55 PM EDT
Astronomical Twilight 5:49 AM EDT 9:25 PM EDT
Moon 11:37 AM EDT 10:59 PM EDT
Length of Visible Light 13h 38m
Length of Day
12h 49m
Tomorrow will be 1m 45s shorter.
Waxing Crescent, 22% of the Moon is Illuminated
Today
Waxing Crescent
Sep 2
First Quarter
Sep 8
Full
Sep 15
Last Quarter
Sep 24
New

Today's Extremes

State Highs State Lows

Community

WunderPhotos

Upload Photos

1,748,543 photos uploaded!

WunderBlogs® & News

Nearby

Snow Depth

Station Depth Elevation
No new snow has been reported.

Earthquake Activity

City Distance Mag. Time & Date
No recent earthquake activity has been reported nearby.
Minimum magnitude displayed is 2.5.

Coastal Water Temperatures

Place Temperature
Apalachicola, FL 86.0 °F
Panama City, FL 84.9 °F

Nearby Weather Stations